sensor_id;sensor_type;location;lat;lon;timestamp;temperature;humidity
15048;DHT22;7621;52.350;13.308;2022-12-11T21:50:47;1.00;99.90
15048;DHT22;7621;52.350;13.308;2022-12-11T21:53:13;0.90;99.90
15048;DHT22;7621;52.350;13.308;2022-12-11T21:55:39;0.80;99.90
15048;DHT22;7621;52.350;13.308;2022-12-11T21:58:05;0.80;99.90
15048;DHT22;7621;52.350;13.308;2022-12-11T22:00:31;0.70;99.90
15048;DHT22;7621;52.350;13.308;2022-12-11T22:02:56;0.70;99.90
15048;DHT22;7621;52.350;13.308;2022-12-11T22:05:22;0.60;99.90
15048;DHT22;7621;52.350;13.308;2022-12-11T22:07:47;0.60;99.90
15048;DHT22;7621;52.350;13.308;2022-12-11T22:10:13;0.60;99.90
15048;DHT22;7621;52.350;13.308;2022-12-11T22:12:39;0.60;99.90
15048;DHT22;7621;52.350;13.308;2022-12-11T22:15:05;0.50;99.90
15048;DHT22;7621;52.350;13.308;2022-12-11T22:17:30;0.50;99.90
15048;DHT22;7621;52.350;13.308;2022-12-11T22:19:57;0.50;99.90
15048;DHT22;7621;52.350;13.308;2022-12-11T22:22:22;0.50;99.90
15048;DHT22;7621;52.350;13.308;2022-12-11T22:24:48;0.50;99.90
15048;DHT22;7621;52.350;13.308;2022-12-11T22:27:14;0.50;99.90
15048;DHT22;7621;52.350;13.308;2022-12-11T22:29:40;0.50;99.90
15048;DHT22;7621;52.350;13.308;2022-12-11T22:32:06;0.50;99.90
15048;DHT22;7621;52.350;13.308;2022-12-11T22:34:31;0.50;99.90
15048;DHT22;7621;52.350;13.308;2022-12-11T22:36:57;0.50;99.90
15048;DHT22;7621;52.350;13.308;2022-12-11T22:39:22;0.40;99.90
15048;DHT22;7621;52.350;13.308;2022-12-11T22:41:49;0.40;99.90
15048;DHT22;7621;52.350;13.308;2022-12-11T22:44:16;0.40;99.90
15048;DHT22;7621;52.350;13.308;2022-12-11T22:46:43;0.40;99.90
15048;DHT22;7621;52.350;13.308;2022-12-11T22:49:09;0.40;99.90
15048;DHT22;7621;52.350;13.308;2022-12-11T22:51:35;0.40;99.90
15048;DHT22;7621;52.350;13.308;2022-12-11T22:54:02;0.40;99.90
15048;DHT22;7621;52.350;13.308;2022-12-11T22:56:27;0.40;99.90
15048;DHT22;7621;52.350;13.308;2022-12-11T22:59:03;0.40;99.90
15048;DHT22;7621;52.350;13.308;2022-12-11T23:01:29;0.30;99.90
15048;DHT22;7621;52.350;13.308;2022-12-11T23:03:54;0.30;99.90
15048;DHT22;7621;52.350;13.308;2022-12-11T23:06:22;0.30;99.90
15048;DHT22;7621;52.350;13.308;2022-12-11T23:08:49;0.30;99.90
15048;DHT22;7621;52.350;13.308;2022-12-11T23:11:23;0.30;99.90
15048;DHT22;7621;52.350;13.308;2022-12-11T23:13:50;0.40;99.90
15048;DHT22;7621;52.350;13.308;2022-12-11T23:16:15;0.30;99.90
15048;DHT22;7621;52.350;13.308;2022-12-11T23:18:41;0.40;99.90
15048;DHT22;7621;52.350;13.308;2022-12-11T23:21:07;0.40;99.90
15048;DHT22;7621;52.350;13.308;2022-12-11T23:23:33;0.40;99.90
15048;DHT22;7621;52.350;13.308;2022-12-11T23:26:00;0.50;99.90
15048;DHT22;7621;52.350;13.308;2022-12-11T23:28:25;0.50;99.90
15048;DHT22;7621;52.350;13.308;2022-12-11T23:30:51;0.50;99.90
15048;DHT22;7621;52.350;13.308;2022-12-11T23:33:17;0.60;99.90
15048;DHT22;7621;52.350;13.308;2022-12-11T23:35:42;0.60;99.90
15048;DHT22;7621;52.350;13.308;2022-12-11T23:38:08;0.60;99.90
15048;DHT22;7621;52.350;13.308;2022-12-11T23:40:34;0.60;99.90
15048;DHT22;7621;52.350;13.308;2022-12-11T23:43:00;0.70;99.90
15048;DHT22;7621;52.350;13.308;2022-12-11T23:45:25;0.70;99.90
15048;DHT22;7621;52.350;13.308;2022-12-11T23:47:51;0.70;99.90
15048;DHT22;7621;52.350;13.308;2022-12-11T23:50:17;0.80;99.90
15048;DHT22;7621;52.350;13.308;2022-12-11T23:52:43;0.80;99.90
15048;DHT22;7621;52.350;13.308;2022-12-11T23:55:08;0.80;99.90
15048;DHT22;7621;52.350;13.308;2022-12-11T23:57:35;0.80;99.90
